sensor_id;sensor_type;location;lat;lon;timestamp;P1;durP1;ratioP1;P2;durP2;ratioP2
8187;SDS011;4135;49.184;9.722;2023-03-04T00:02:05;7.13;;;4.80;;
8187;SDS011;4135;49.184;9.722;2023-03-04T00:04:35;5.70;;;4.35;;
8187;SDS011;4135;49.184;9.722;2023-03-04T00:07:04;7.28;;;5.18;;
8187;SDS011;4135;49.184;9.722;2023-03-04T00:09:34;6.93;;;4.43;;
8187;SDS011;4135;49.184;9.722;2023-03-04T00:12:03;6.72;;;4.32;;
8187;SDS011;4135;49.184;9.722;2023-03-04T00:14:35;5.70;;;4.40;;
8187;SDS011;4135;49.184;9.722;2023-03-04T00:17:05;8.45;;;4.97;;
8187;SDS011;4135;49.184;9.722;2023-03-04T00:19:35;6.97;;;4.25;;
8187;SDS011;4135;49.184;9.722;2023-03-04T00:22:05;8.18;;;4.57;;
8187;SDS011;4135;49.184;9.722;2023-03-04T00:24:34;7.10;;;4.38;;
8187;SDS011;4135;49.184;9.722;2023-03-04T00:27:04;6.28;;;3.80;;
8187;SDS011;4135;49.184;9.722;2023-03-04T00:29:33;10.60;;;5.22;;
8187;SDS011;4135;49.184;9.722;2023-03-04T00:32:03;6.75;;;4.28;;
8187;SDS011;4135;49.184;9.722;2023-03-04T00:34:33;4.95;;;4.30;;
8187;SDS011;4135;49.184;9.722;2023-03-04T00:37:02;11.63;;;4.78;;
8187;SDS011;4135;49.184;9.722;2023-03-04T00:39:32;7.43;;;4.70;;
8187;SDS011;4135;49.184;9.722;2023-03-04T00:42:01;5.95;;;4.45;;
8187;SDS011;4135;49.184;9.722;2023-03-04T00:44:31;8.10;;;4.50;;
8187;SDS011;4135;49.184;9.722;2023-03-04T00:47:00;6.45;;;4.72;;
8187;SDS011;4135;49.184;9.722;2023-03-04T00:49:30;5.88;;;4.15;;
8187;SDS011;4135;49.184;9.722;2023-03-04T00:51:59;10.88;;;4.90;;
8187;SDS011;4135;49.184;9.722;2023-03-04T00:54:29;6.28;;;4.45;;
8187;SDS011;4135;49.184;9.722;2023-03-04T00:56:58;5.65;;;4.20;;
8187;SDS011;4135;49.184;9.722;2023-03-04T00:59:28;10.10;;;4.72;;
8187;SDS011;4135;49.184;9.722;2023-03-04T01:01:57;6.60;;;4.35;;
8187;SDS011;4135;49.184;9.722;2023-03-04T01:04:27;7.20;;;4.15;;
8187;SDS011;4135;49.184;9.722;2023-03-04T01:06:57;6.80;;;4.32;;
8187;SDS011;4135;49.184;9.722;2023-03-04T01:09:26;9.93;;;4.30;;
8187;SDS011;4135;49.184;9.722;2023-03-04T01:11:57;7.03;;;3.88;;
8187;SDS011;4135;49.184;9.722;2023-03-04T01:14:27;5.72;;;4.07;;
8187;SDS011;4135;49.184;9.722;2023-03-04T01:16:56;7.13;;;4.05;;
8187;SDS011;4135;49.184;9.722;2023-03-04T01:19:26;7.25;;;4.32;;
8187;SDS011;4135;49.184;9.722;2023-03-04T01:21:55;8.70;;;4.45;;
8187;SDS011;4135;49.184;9.722;2023-03-04T01:24:25;8.45;;;4.45;;
8187;SDS011;4135;49.184;9.722;2023-03-04T01:26:54;6.07;;;4.10;;
8187;SDS011;4135;49.184;9.722;2023-03-04T01:29:24;9.63;;;5.03;;
8187;SDS011;4135;49.184;9.722;2023-03-04T01:31:53;6.82;;;4.30;;
8187;SDS011;4135;49.184;9.722;2023-03-04T01:34:23;7.50;;;4.00;;
8187;SDS011;4135;49.184;9.722;2023-03-04T01:36:52;7.18;;;4.38;;
8187;SDS011;4135;49.184;9.722;2023-03-04T01:39:22;6.35;;;3.97;;
8187;SDS011;4135;49.184;9.722;2023-03-04T01:42:17;7.82;;;4.07;;
8187;SDS011;4135;49.184;9.722;2023-03-04T01:44:48;8.32;;;4.22;;
8187;SDS011;4135;49.184;9.722;2023-03-04T01:47:19;5.55;;;3.78;;
8187;SDS011;4135;49.184;9.722;2023-03-04T01:49:52;7.18;;;4.30;;
8187;SDS011;4135;49.184;9.722;2023-03-04T01:52:25;6.68;;;4.50;;
8187;SDS011;4135;49.184;9.722;2023-03-04T01:54:56;6.43;;;4.32;;
8187;SDS011;4135;49.184;9.722;2023-03-04T01:57:25;9.27;;;4.82;;
8187;SDS011;4135;49.184;9.722;2023-03-04T02:02:48;8.15;;;4.80;;
8187;SDS011;4135;49.184;9.722;2023-03-04T02:05:20;8.15;;;4.60;;
8187;SDS011;4135;49.184;9.722;2023-03-04T02:07:50;6.50;;;4.20;;
8187;SDS011;4135;49.184;9.722;2023-03-04T02:10:21;7.82;;;4.55;;
8187;SDS011;4135;49.184;9.722;2023-03-04T02:12:51;6.43;;;3.25;;
8187;SDS011;4135;49.184;9.722;2023-03-04T02:15:21;5.97;;;3.95;;
8187;SDS011;4135;49.184;9.722;2023-03-04T02:17:52;7.60;;;4.15;;
8187;SDS011;4135;49.184;9.722;2023-03-04T02:20:24;4.68;;;3.60;;
8187;SDS011;4135;49.184;9.722;2023-03-04T02:23:21;5.78;;;3.58;;
8187;SDS011;4135;49.184;9.722;2023-03-04T02:28:37;6.68;;;3.88;;
8187;SDS011;4135;49.184;9.722;2023-03-04T02:31:11;7.63;;;3.42;;
8187;SDS011;4135;49.184;9.722;2023-03-04T02:33:52;7.03;;;4.53;;
8187;SDS011;4135;49.184;9.722;2023-03-04T02:36:23;6.10;;;3.67;;
8187;SDS011;4135;49.184;9.722;2023-03-04T02:38:54;5.65;;;3.63;;
8187;SDS011;4135;49.184;9.722;2023-03-04T02:41:28;6.07;;;3.97;;
8187;SDS011;4135;49.184;9.722;2023-03-04T02:43:59;6.60;;;3.40;;
8187;SDS011;4135;49.184;9.722;2023-03-04T02:46:28;6.45;;;3.80;;
8187;SDS011;4135;49.184;9.722;2023-03-04T02:48:58;6.72;;;3.72;;
8187;SDS011;4135;49.184;9.722;2023-03-04T02:51:27;6.30;;;3.55;;
8187;SDS011;4135;49.184;9.722;2023-03-04T02:53:57;6.38;;;4.13;;
8187;SDS011;4135;49.184;9.722;2023-03-04T02:56:26;3.65;;;2.90;;
8187;SDS011;4135;49.184;9.722;2023-03-04T02:58:56;8.98;;;4.32;;
8187;SDS011;4135;49.184;9.722;2023-03-04T03:01:27;5.97;;;3.70;;
8187;SDS011;4135;49.184;9.722;2023-03-04T03:03:57;6.60;;;4.15;;
8187;SDS011;4135;49.184;9.722;2023-03-04T03:06:27;5.13;;;3.63;;
8187;SDS011;4135;49.184;9.722;2023-03-04T03:08:56;5.10;;;3.78;;
8187;SDS011;4135;49.184;9.722;2023-03-04T03:11:26;7.28;;;4.18;;
8187;SDS011;4135;49.184;9.722;2023-03-04T03:13:55;4.53;;;3.47;;
8187;SDS011;4135;49.184;9.722;2023-03-04T03:16:25;5.30;;;3.25;;
8187;SDS011;4135;49.184;9.722;2023-03-04T03:18:55;5.38;;;3.25;;
8187;SDS011;4135;49.184;9.722;2023-03-04T03:21:24;5.85;;;3.88;;
8187;SDS011;4135;49.184;9.722;2023-03-04T03:23:54;4.25;;;3.50;;
8187;SDS011;4135;49.184;9.722;2023-03-04T03:26:23;9.32;;;3.78;;
8187;SDS011;4135;49.184;9.722;2023-03-04T03:28:53;4.28;;;3.42;;
8187;SDS011;4135;49.184;9.722;2023-03-04T03:31:23;5.50;;;3.35;;
8187;SDS011;4135;49.184;9.722;2023-03-04T03:33:52;5.10;;;3.95;;
8187;SDS011;4135;49.184;9.722;2023-03-04T03:36:22;4.13;;;3.08;;
8187;SDS011;4135;49.184;9.722;2023-03-04T03:38:51;6.00;;;3.72;;
8187;SDS011;4135;49.184;9.722;2023-03-04T03:41:21;3.72;;;3.05;;
8187;SDS011;4135;49.184;9.722;2023-03-04T03:43:50;11.23;;;4.78;;
8187;SDS011;4135;49.184;9.722;2023-03-04T03:46:20;3.70;;;3.10;;
8187;SDS011;4135;49.184;9.722;2023-03-04T03:48:49;9.02;;;4.30;;
8187;SDS011;4135;49.184;9.722;2023-03-04T03:51:19;7.35;;;3.90;;
8187;SDS011;4135;49.184;9.722;2023-03-04T03:53:48;4.85;;;3.95;;
8187;SDS011;4135;49.184;9.722;2023-03-04T03:56:18;6.78;;;3.97;;
8187;SDS011;4135;49.184;9.722;2023-03-04T03:58:47;6.18;;;4.03;;
8187;SDS011;4135;49.184;9.722;2023-03-04T04:01:17;5.70;;;3.67;;
8187;SDS011;4135;49.184;9.722;2023-03-04T04:03:46;4.45;;;3.70;;
8187;SDS011;4135;49.184;9.722;2023-03-04T04:06:16;8.75;;;3.35;;
8187;SDS011;4135;49.184;9.722;2023-03-04T04:08:45;5.32;;;3.72;;
8187;SDS011;4135;49.184;9.722;2023-03-04T04:11:15;5.22;;;3.60;;
8187;SDS011;4135;49.184;9.722;2023-03-04T04:13:45;5.95;;;3.65;;
8187;SDS011;4135;49.184;9.722;2023-03-04T04:16:14;5.13;;;3.83;;
8187;SDS011;4135;49.184;9.722;2023-03-04T04:18:44;3.72;;;3.30;;
8187;SDS011;4135;49.184;9.722;2023-03-04T04:21:13;4.68;;;3.28;;
8187;SDS011;4135;49.184;9.722;2023-03-04T04:23:43;5.53;;;3.65;;
8187;SDS011;4135;49.184;9.722;2023-03-04T04:26:12;4.90;;;3.60;;
8187;SDS011;4135;49.184;9.722;2023-03-04T04:28:42;6.30;;;3.90;;
8187;SDS011;4135;49.184;9.722;2023-03-04T04:31:11;4.68;;;3.63;;
8187;SDS011;4135;49.184;9.722;2023-03-04T04:33:41;7.47;;;3.88;;
8187;SDS011;4135;49.184;9.722;2023-03-04T04:36:14;4.10;;;3.15;;
8187;SDS011;4135;49.184;9.722;2023-03-04T04:38:44;6.15;;;3.33;;
8187;SDS011;4135;49.184;9.722;2023-03-04T04:41:24;7.13;;;3.60;;
8187;SDS011;4135;49.184;9.722;2023-03-04T04:43:56;7.22;;;3.63;;
8187;SDS011;4135;49.184;9.722;2023-03-04T04:46:25;9.50;;;3.92;;
8187;SDS011;4135;49.184;9.722;2023-03-04T04:48:55;5.13;;;3.42;;
8187;SDS011;4135;49.184;9.722;2023-03-04T04:51:25;4.00;;;3.25;;
8187;SDS011;4135;49.184;9.722;2023-03-04T04:53:54;6.18;;;2.88;;
8187;SDS011;4135;49.184;9.722;2023-03-04T04:56:24;5.78;;;3.58;;
8187;SDS011;4135;49.184;9.722;2023-03-04T04:58:58;10.20;;;3.70;;
8187;SDS011;4135;49.184;9.722;2023-03-04T05:01:29;3.40;;;2.78;;
8187;SDS011;4135;49.184;9.722;2023-03-04T05:03:59;4.95;;;2.95;;
8187;SDS011;4135;49.184;9.722;2023-03-04T05:06:29;5.05;;;3.13;;
8187;SDS011;4135;49.184;9.722;2023-03-04T05:08:58;5.80;;;3.40;;
8187;SDS011;4135;49.184;9.722;2023-03-04T05:11:28;4.53;;;3.50;;
8187;SDS011;4135;49.184;9.722;2023-03-04T05:13:58;4.95;;;2.88;;
8187;SDS011;4135;49.184;9.722;2023-03-04T05:16:27;6.88;;;3.70;;
8187;SDS011;4135;49.184;9.722;2023-03-04T05:18:57;4.13;;;3.00;;
8187;SDS011;4135;49.184;9.722;2023-03-04T05:21:26;6.32;;;3.65;;
8187;SDS011;4135;49.184;9.722;2023-03-04T05:23:56;5.22;;;3.63;;
8187;SDS011;4135;49.184;9.722;2023-03-04T05:26:25;8.52;;;3.80;;
8187;SDS011;4135;49.184;9.722;2023-03-04T05:28:55;8.18;;;3.92;;
8187;SDS011;4135;49.184;9.722;2023-03-04T05:31:24;4.80;;;3.38;;
8187;SDS011;4135;49.184;9.722;2023-03-04T05:33:54;6.43;;;3.38;;
8187;SDS011;4135;49.184;9.722;2023-03-04T05:36:24;4.82;;;3.05;;
8187;SDS011;4135;49.184;9.722;2023-03-04T05:38:53;6.13;;;3.53;;
8187;SDS011;4135;49.184;9.722;2023-03-04T05:41:23;5.28;;;3.50;;
8187;SDS011;4135;49.184;9.722;2023-03-04T05:43:53;4.43;;;3.20;;
8187;SDS011;4135;49.184;9.722;2023-03-04T05:46:24;5.72;;;3.38;;
8187;SDS011;4135;49.184;9.722;2023-03-04T05:48:53;5.30;;;3.38;;
8187;SDS011;4135;49.184;9.722;2023-03-04T05:51:23;5.18;;;3.22;;
8187;SDS011;4135;49.184;9.722;2023-03-04T05:53:53;6.63;;;2.83;;
8187;SDS011;4135;49.184;9.722;2023-03-04T05:56:22;3.50;;;2.90;;
8187;SDS011;4135;49.184;9.722;2023-03-04T05:58:52;5.40;;;3.53;;
8187;SDS011;4135;49.184;9.722;2023-03-04T06:01:26;4.38;;;3.08;;
8187;SDS011;4135;49.184;9.722;2023-03-04T06:03:55;5.25;;;3.35;;
8187;SDS011;4135;49.184;9.722;2023-03-04T06:06:25;5.30;;;3.38;;
8187;SDS011;4135;49.184;9.722;2023-03-04T06:08:54;6.07;;;3.38;;
8187;SDS011;4135;49.184;9.722;2023-03-04T06:11:24;3.40;;;2.75;;
8187;SDS011;4135;49.184;9.722;2023-03-04T06:13:53;4.70;;;2.65;;
8187;SDS011;4135;49.184;9.722;2023-03-04T06:16:23;6.55;;;2.85;;
8187;SDS011;4135;49.184;9.722;2023-03-04T06:18:52;4.13;;;2.85;;
8187;SDS011;4135;49.184;9.722;2023-03-04T06:21:22;3.13;;;2.60;;
8187;SDS011;4135;49.184;9.722;2023-03-04T06:23:51;4.07;;;3.35;;
8187;SDS011;4135;49.184;9.722;2023-03-04T06:26:21;5.28;;;2.90;;
8187;SDS011;4135;49.184;9.722;2023-03-04T06:28:50;3.70;;;2.50;;
8187;SDS011;4135;49.184;9.722;2023-03-04T06:31:24;3.80;;;2.65;;
8187;SDS011;4135;49.184;9.722;2023-03-04T06:33:54;6.22;;;3.10;;
8187;SDS011;4135;49.184;9.722;2023-03-04T06:36:23;5.43;;;3.42;;
8187;SDS011;4135;49.184;9.722;2023-03-04T06:38:53;3.45;;;2.30;;
8187;SDS011;4135;49.184;9.722;2023-03-04T06:41:22;5.68;;;2.97;;
8187;SDS011;4135;49.184;9.722;2023-03-04T06:43:52;3.60;;;2.47;;
8187;SDS011;4135;49.184;9.722;2023-03-04T06:46:22;3.50;;;2.55;;
8187;SDS011;4135;49.184;9.722;2023-03-04T06:48:52;4.85;;;3.10;;
8187;SDS011;4135;49.184;9.722;2023-03-04T06:51:21;4.07;;;2.45;;
8187;SDS011;4135;49.184;9.722;2023-03-04T06:53:51;5.85;;;2.53;;
8187;SDS011;4135;49.184;9.722;2023-03-04T06:56:20;7.93;;;3.33;;
8187;SDS011;4135;49.184;9.722;2023-03-04T06:58:50;2.67;;;2.33;;
8187;SDS011;4135;49.184;9.722;2023-03-04T07:01:21;7.15;;;3.08;;
8187;SDS011;4135;49.184;9.722;2023-03-04T07:03:52;2.85;;;2.55;;
8187;SDS011;4135;49.184;9.722;2023-03-04T07:06:25;3.92;;;2.30;;
8187;SDS011;4135;49.184;9.722;2023-03-04T07:08:56;3.95;;;2.58;;
8187;SDS011;4135;49.184;9.722;2023-03-04T07:11:26;3.40;;;2.33;;
8187;SDS011;4135;49.184;9.722;2023-03-04T07:13:55;3.60;;;2.38;;
8187;SDS011;4135;49.184;9.722;2023-03-04T07:16:25;4.22;;;2.45;;
8187;SDS011;4135;49.184;9.722;2023-03-04T07:18:54;8.65;;;3.28;;
8187;SDS011;4135;49.184;9.722;2023-03-04T07:21:24;4.28;;;2.80;;
8187;SDS011;4135;49.184;9.722;2023-03-04T07:23:54;6.28;;;3.63;;
8187;SDS011;4135;49.184;9.722;2023-03-04T07:26:23;6.93;;;3.45;;
8187;SDS011;4135;49.184;9.722;2023-03-04T07:28:53;4.57;;;2.97;;
8187;SDS011;4135;49.184;9.722;2023-03-04T07:31:23;6.60;;;3.40;;
8187;SDS011;4135;49.184;9.722;2023-03-04T07:33:59;6.60;;;3.70;;
8187;SDS011;4135;49.184;9.722;2023-03-04T07:36:34;7.05;;;3.22;;
8187;SDS011;4135;49.184;9.722;2023-03-04T07:39:05;4.82;;;3.15;;
8187;SDS011;4135;49.184;9.722;2023-03-04T07:41:35;6.72;;;3.67;;
8187;SDS011;4135;49.184;9.722;2023-03-04T07:44:05;5.10;;;3.17;;
8187;SDS011;4135;49.184;9.722;2023-03-04T07:46:36;6.18;;;3.15;;
8187;SDS011;4135;49.184;9.722;2023-03-04T07:49:06;6.63;;;3.88;;
8187;SDS011;4135;49.184;9.722;2023-03-04T07:51:36;6.63;;;3.38;;
8187;SDS011;4135;49.184;9.722;2023-03-04T07:54:05;6.45;;;3.90;;
8187;SDS011;4135;49.184;9.722;2023-03-04T07:56:35;9.65;;;3.90;;
8187;SDS011;4135;49.184;9.722;2023-03-04T07:59:04;7.60;;;4.03;;
8187;SDS011;4135;49.184;9.722;2023-03-04T08:01:35;6.15;;;3.88;;
8187;SDS011;4135;49.184;9.722;2023-03-04T08:04:05;9.38;;;5.15;;
8187;SDS011;4135;49.184;9.722;2023-03-04T08:06:35;8.93;;;5.38;;
8187;SDS011;4135;49.184;9.722;2023-03-04T08:09:05;9.10;;;4.28;;
8187;SDS011;4135;49.184;9.722;2023-03-04T08:11:36;10.90;;;4.38;;
8187;SDS011;4135;49.184;9.722;2023-03-04T08:14:06;7.35;;;4.53;;
8187;SDS011;4135;49.184;9.722;2023-03-04T08:16:37;13.52;;;4.82;;
8187;SDS011;4135;49.184;9.722;2023-03-04T08:19:07;8.65;;;4.22;;
8187;SDS011;4135;49.184;9.722;2023-03-04T08:21:36;17.95;;;3.97;;
8187;SDS011;4135;49.184;9.722;2023-03-04T08:24:06;6.45;;;3.53;;
8187;SDS011;4135;49.184;9.722;2023-03-04T08:26:37;10.35;;;4.05;;
8187;SDS011;4135;49.184;9.722;2023-03-04T08:29:13;10.95;;;4.78;;
8187;SDS011;4135;49.184;9.722;2023-03-04T08:31:46;7.47;;;3.40;;
8187;SDS011;4135;49.184;9.722;2023-03-04T08:34:17;7.07;;;3.58;;
8187;SDS011;4135;49.184;9.722;2023-03-04T08:36:47;6.07;;;3.53;;
8187;SDS011;4135;49.184;9.722;2023-03-04T08:39:17;6.65;;;3.85;;
8187;SDS011;4135;49.184;9.722;2023-03-04T08:41:47;8.40;;;3.08;;
8187;SDS011;4135;49.184;9.722;2023-03-04T08:44:17;10.20;;;3.47;;
8187;SDS011;4135;49.184;9.722;2023-03-04T08:46:47;4.60;;;2.78;;
8187;SDS011;4135;49.184;9.722;2023-03-04T08:49:16;12.88;;;3.55;;
8187;SDS011;4135;49.184;9.722;2023-03-04T08:51:46;6.60;;;2.72;;
8187;SDS011;4135;49.184;9.722;2023-03-04T08:54:16;6.35;;;3.15;;
8187;SDS011;4135;49.184;9.722;2023-03-04T08:56:45;9.32;;;3.70;;
8187;SDS011;4135;49.184;9.722;2023-03-04T08:59:15;10.63;;;4.10;;
8187;SDS011;4135;49.184;9.722;2023-03-04T09:01:44;10.32;;;4.57;;
8187;SDS011;4135;49.184;9.722;2023-03-04T09:04:14;11.35;;;6.38;;
8187;SDS011;4135;49.184;9.722;2023-03-04T09:06:43;11.07;;;5.88;;
8187;SDS011;4135;49.184;9.722;2023-03-04T09:09:13;9.07;;;5.18;;
8187;SDS011;4135;49.184;9.722;2023-03-04T09:11:42;6.30;;;4.55;;
8187;SDS011;4135;49.184;9.722;2023-03-04T09:14:12;7.82;;;4.57;;
8187;SDS011;4135;49.184;9.722;2023-03-04T09:16:41;7.35;;;4.07;;
8187;SDS011;4135;49.184;9.722;2023-03-04T09:19:11;5.97;;;4.25;;
8187;SDS011;4135;49.184;9.722;2023-03-04T09:21:40;8.38;;;4.28;;
8187;SDS011;4135;49.184;9.722;2023-03-04T09:24:10;7.68;;;4.07;;
8187;SDS011;4135;49.184;9.722;2023-03-04T09:26:40;7.60;;;4.57;;
8187;SDS011;4135;49.184;9.722;2023-03-04T09:29:09;8.85;;;4.35;;
8187;SDS011;4135;49.184;9.722;2023-03-04T09:31:39;10.45;;;4.47;;
8187;SDS011;4135;49.184;9.722;2023-03-04T09:34:08;10.88;;;3.78;;
8187;SDS011;4135;49.184;9.722;2023-03-04T09:36:38;8.15;;;3.95;;
8187;SDS011;4135;49.184;9.722;2023-03-04T09:39:08;5.85;;;3.55;;
8187;SDS011;4135;49.184;9.722;2023-03-04T09:41:39;4.63;;;3.22;;
8187;SDS011;4135;49.184;9.722;2023-03-04T09:44:15;6.22;;;3.45;;
8187;SDS011;4135;49.184;9.722;2023-03-04T09:46:54;8.32;;;3.20;;
8187;SDS011;4135;49.184;9.722;2023-03-04T09:49:28;5.43;;;3.63;;
8187;SDS011;4135;49.184;9.722;2023-03-04T09:57:46;12.93;;;9.88;;
8187;SDS011;4135;49.184;9.722;2023-03-04T10:00:34;12.38;;;6.53;;
8187;SDS011;4135;49.184;9.722;2023-03-04T10:05:40;11.23;;;6.38;;
8187;SDS011;4135;49.184;9.722;2023-03-04T10:08:26;8.27;;;4.90;;
8187;SDS011;4135;49.184;9.722;2023-03-04T10:11:12;8.70;;;5.32;;
8187;SDS011;4135;49.184;9.722;2023-03-04T10:16:59;11.20;;;7.03;;
8187;SDS011;4135;49.184;9.722;2023-03-04T10:19:50;10.82;;;5.47;;
8187;SDS011;4135;49.184;9.722;2023-03-04T10:22:36;8.45;;;4.60;;
8187;SDS011;4135;49.184;9.722;2023-03-04T10:27:56;6.20;;;4.35;;
8187;SDS011;4135;49.184;9.722;2023-03-04T10:30:35;11.05;;;5.43;;
8187;SDS011;4135;49.184;9.722;2023-03-04T10:33:26;7.35;;;4.47;;
8187;SDS011;4135;49.184;9.722;2023-03-04T10:36:05;6.40;;;4.63;;
8187;SDS011;4135;49.184;9.722;2023-03-04T10:41:53;6.05;;;4.43;;
8187;SDS011;4135;49.184;9.722;2023-03-04T10:44:25;7.43;;;4.55;;
8187;SDS011;4135;49.184;9.722;2023-03-04T10:46:55;19.10;;;4.88;;
8187;SDS011;4135;49.184;9.722;2023-03-04T10:49:27;14.13;;;5.20;;
8187;SDS011;4135;49.184;9.722;2023-03-04T10:52:13;9.63;;;4.90;;
8187;SDS011;4135;49.184;9.722;2023-03-04T10:54:51;13.48;;;4.07;;
8187;SDS011;4135;49.184;9.722;2023-03-04T10:57:33;9.18;;;4.53;;
8187;SDS011;4135;49.184;9.722;2023-03-04T11:00:25;9.02;;;5.47;;
8187;SDS011;4135;49.184;9.722;2023-03-04T11:05:50;7.80;;;4.15;;
8187;SDS011;4135;49.184;9.722;2023-03-04T11:08:21;13.93;;;4.20;;
8187;SDS011;4135;49.184;9.722;2023-03-04T11:10:51;9.48;;;3.80;;
8187;SDS011;4135;49.184;9.722;2023-03-04T11:13:22;10.80;;;4.32;;
8187;SDS011;4135;49.184;9.722;2023-03-04T11:15:55;13.38;;;5.53;;
8187;SDS011;4135;49.184;9.722;2023-03-04T11:18:40;28.88;;;4.70;;
8187;SDS011;4135;49.184;9.722;2023-03-04T11:21:14;13.18;;;4.40;;
8187;SDS011;4135;49.184;9.722;2023-03-04T11:24:33;11.10;;;3.92;;
8187;SDS011;4135;49.184;9.722;2023-03-04T11:26:42;11.70;;;3.90;;
8187;SDS011;4135;49.184;9.722;2023-03-04T11:29:17;8.60;;;3.78;;
8187;SDS011;4135;49.184;9.722;2023-03-04T11:40:07;10.30;;;3.72;;
8187;SDS011;4135;49.184;9.722;2023-03-04T11:42:43;6.63;;;3.75;;
8187;SDS011;4135;49.184;9.722;2023-03-04T11:45:21;7.47;;;3.28;;
8187;SDS011;4135;49.184;9.722;2023-03-04T11:48:11;5.40;;;3.30;;
8187;SDS011;4135;49.184;9.722;2023-03-04T11:51:06;8.88;;;3.05;;
8187;SDS011;4135;49.184;9.722;2023-03-04T11:53:52;8.93;;;3.78;;
8187;SDS011;4135;49.184;9.722;2023-03-04T11:56:44;15.48;;;4.25;;
8187;SDS011;4135;49.184;9.722;2023-03-04T12:07:42;10.27;;;4.10;;
8187;SDS011;4135;49.184;9.722;2023-03-04T12:10:35;10.98;;;3.97;;
8187;SDS011;4135;49.184;9.722;2023-03-04T12:13:19;11.40;;;3.90;;
8187;SDS011;4135;49.184;9.722;2023-03-04T12:16:35;7.80;;;3.20;;
8187;SDS011;4135;49.184;9.722;2023-03-04T12:19:40;9.00;;;3.83;;
8187;SDS011;4135;49.184;9.722;2023-03-04T12:35:52;20.85;;;7.50;;
8187;SDS011;4135;49.184;9.722;2023-03-04T12:38:38;12.55;;;5.10;;
8187;SDS011;4135;49.184;9.722;2023-03-04T12:55:16;6.05;;;3.40;;
8187;SDS011;4135;49.184;9.722;2023-03-04T12:57:49;11.00;;;4.30;;
8187;SDS011;4135;49.184;9.722;2023-03-04T13:05:59;8.65;;;3.88;;
8187;SDS011;4135;49.184;9.722;2023-03-04T13:11:41;9.32;;;4.18;;
8187;SDS011;4135;49.184;9.722;2023-03-04T13:22:27;10.13;;;4.45;;
8187;SDS011;4135;49.184;9.722;2023-03-04T13:25:32;5.95;;;3.80;;
8187;SDS011;4135;49.184;9.722;2023-03-04T13:28:19;7.72;;;3.65;;
8187;SDS011;4135;49.184;9.722;2023-03-04T13:38:32;10.45;;;5.13;;
8187;SDS011;4135;49.184;9.722;2023-03-04T13:41:13;8.02;;;5.07;;
8187;SDS011;4135;49.184;9.722;2023-03-04T13:43:49;7.53;;;4.68;;
8187;SDS011;4135;49.184;9.722;2023-03-04T13:51:31;8.38;;;4.28;;
8187;SDS011;4135;49.184;9.722;2023-03-04T13:56:37;9.43;;;3.97;;
8187;SDS011;4135;49.184;9.722;2023-03-04T14:04:45;11.95;;;3.83;;
8187;SDS011;4135;49.184;9.722;2023-03-04T14:07:28;7.63;;;3.20;;
8187;SDS011;4135;49.184;9.722;2023-03-04T14:10:07;5.30;;;3.42;;
8187;SDS011;4135;49.184;9.722;2023-03-04T14:12:53;5.13;;;2.83;;
8187;SDS011;4135;49.184;9.722;2023-03-04T14:15:26;6.40;;;3.40;;
8187;SDS011;4135;49.184;9.722;2023-03-04T14:18:01;5.18;;;2.95;;
8187;SDS011;4135;49.184;9.722;2023-03-04T14:20:33;6.70;;;3.55;;
8187;SDS011;4135;49.184;9.722;2023-03-04T14:23:24;6.43;;;3.80;;
8187;SDS011;4135;49.184;9.722;2023-03-04T14:26:06;4.45;;;2.90;;
8187;SDS011;4135;49.184;9.722;2023-03-04T14:28:46;5.22;;;3.17;;
8187;SDS011;4135;49.184;9.722;2023-03-04T14:31:20;10.80;;;3.10;;
8187;SDS011;4135;49.184;9.722;2023-03-04T14:33:52;12.43;;;7.35;;
8187;SDS011;4135;49.184;9.722;2023-03-04T14:36:34;10.80;;;5.78;;
8187;SDS011;4135;49.184;9.722;2023-03-04T14:39:05;7.65;;;4.95;;
8187;SDS011;4135;49.184;9.722;2023-03-04T14:41:37;8.25;;;4.50;;
8187;SDS011;4135;49.184;9.722;2023-03-04T14:44:14;5.47;;;4.15;;
8187;SDS011;4135;49.184;9.722;2023-03-04T14:47:07;7.03;;;4.15;;
8187;SDS011;4135;49.184;9.722;2023-03-04T14:49:38;6.00;;;3.78;;
8187;SDS011;4135;49.184;9.722;2023-03-04T14:57:44;4.60;;;3.13;;
8187;SDS011;4135;49.184;9.722;2023-03-04T15:00:26;6.15;;;3.92;;
8187;SDS011;4135;49.184;9.722;2023-03-04T15:03:02;7.55;;;3.33;;
8187;SDS011;4135;49.184;9.722;2023-03-04T15:05:44;6.93;;;3.58;;
8187;SDS011;4135;49.184;9.722;2023-03-04T15:08:25;5.20;;;3.35;;
8187;SDS011;4135;49.184;9.722;2023-03-04T15:10:58;10.35;;;3.28;;
8187;SDS011;4135;49.184;9.722;2023-03-04T15:13:42;5.43;;;3.42;;
8187;SDS011;4135;49.184;9.722;2023-03-04T15:16:15;6.00;;;3.35;;
8187;SDS011;4135;49.184;9.722;2023-03-04T15:21:27;8.18;;;3.80;;
8187;SDS011;4135;49.184;9.722;2023-03-04T15:23:58;7.82;;;3.22;;
8187;SDS011;4135;49.184;9.722;2023-03-04T15:26:31;7.20;;;3.72;;
8187;SDS011;4135;49.184;9.722;2023-03-04T15:29:03;9.15;;;3.55;;
8187;SDS011;4135;49.184;9.722;2023-03-04T15:31:48;6.85;;;3.80;;
8187;SDS011;4135;49.184;9.722;2023-03-04T15:34:19;12.30;;;3.75;;
8187;SDS011;4135;49.184;9.722;2023-03-04T15:36:49;7.15;;;3.92;;
8187;SDS011;4135;49.184;9.722;2023-03-04T15:39:19;7.70;;;3.60;;
8187;SDS011;4135;49.184;9.722;2023-03-04T15:41:51;9.00;;;3.95;;
8187;SDS011;4135;49.184;9.722;2023-03-04T15:44:20;7.78;;;3.45;;
8187;SDS011;4135;49.184;9.722;2023-03-04T15:46:50;9.55;;;3.97;;
8187;SDS011;4135;49.184;9.722;2023-03-04T15:49:19;18.13;;;5.47;;
8187;SDS011;4135;49.184;9.722;2023-03-04T15:51:49;42.47;;;8.32;;
8187;SDS011;4135;49.184;9.722;2023-03-04T15:54:20;61.75;;;12.63;;
8187;SDS011;4135;49.184;9.722;2023-03-04T15:56:53;80.72;;;17.55;;
8187;SDS011;4135;49.184;9.722;2023-03-04T15:59:23;117.63;;;24.48;;
8187;SDS011;4135;49.184;9.722;2023-03-04T16:01:53;161.20;;;31.38;;
8187;SDS011;4135;49.184;9.722;2023-03-04T16:04:23;181.20;;;38.25;;
8187;SDS011;4135;49.184;9.722;2023-03-04T16:06:52;223.05;;;46.03;;
8187;SDS011;4135;49.184;9.722;2023-03-04T16:09:26;234.32;;;49.58;;
8187;SDS011;4135;49.184;9.722;2023-03-04T16:11:55;233.40;;;48.10;;
8187;SDS011;4135;49.184;9.722;2023-03-04T16:14:29;191.93;;;42.97;;
8187;SDS011;4135;49.184;9.722;2023-03-04T16:16:59;209.20;;;39.80;;
8187;SDS011;4135;49.184;9.722;2023-03-04T16:19:28;181.15;;;39.30;;
8187;SDS011;4135;49.184;9.722;2023-03-04T16:21:58;187.05;;;41.53;;
8187;SDS011;4135;49.184;9.722;2023-03-04T16:24:28;170.85;;;36.30;;
8187;SDS011;4135;49.184;9.722;2023-03-04T16:27:01;148.13;;;34.72;;
8187;SDS011;4135;49.184;9.722;2023-03-04T16:29:30;172.52;;;37.20;;
8187;SDS011;4135;49.184;9.722;2023-03-04T16:32:00;158.98;;;34.72;;
8187;SDS011;4135;49.184;9.722;2023-03-04T16:34:29;143.48;;;34.03;;
8187;SDS011;4135;49.184;9.722;2023-03-04T16:37:01;122.38;;;31.40;;
8187;SDS011;4135;49.184;9.722;2023-03-04T16:39:34;117.88;;;31.13;;
8187;SDS011;4135;49.184;9.722;2023-03-04T16:42:07;123.82;;;29.42;;
8187;SDS011;4135;49.184;9.722;2023-03-04T16:44:44;128.80;;;27.02;;
8187;SDS011;4135;49.184;9.722;2023-03-04T16:47:14;104.05;;;25.52;;
8187;SDS011;4135;49.184;9.722;2023-03-04T16:49:43;126.85;;;26.65;;
8187;SDS011;4135;49.184;9.722;2023-03-04T16:52:20;95.68;;;27.25;;
8187;SDS011;4135;49.184;9.722;2023-03-04T16:54:51;103.32;;;24.48;;
8187;SDS011;4135;49.184;9.722;2023-03-04T16:57:21;104.95;;;21.92;;
8187;SDS011;4135;49.184;9.722;2023-03-04T16:59:50;83.25;;;23.30;;
8187;SDS011;4135;49.184;9.722;2023-03-04T17:02:22;74.95;;;20.58;;
8187;SDS011;4135;49.184;9.722;2023-03-04T17:04:55;74.10;;;18.45;;
8187;SDS011;4135;49.184;9.722;2023-03-04T17:07:27;67.15;;;17.48;;
8187;SDS011;4135;49.184;9.722;2023-03-04T17:09:56;70.45;;;18.73;;
8187;SDS011;4135;49.184;9.722;2023-03-04T17:12:26;57.00;;;17.52;;
8187;SDS011;4135;49.184;9.722;2023-03-04T17:14:55;50.85;;;16.73;;
8187;SDS011;4135;49.184;9.722;2023-03-04T17:17:25;66.43;;;16.77;;
8187;SDS011;4135;49.184;9.722;2023-03-04T17:19:54;59.30;;;16.85;;
8187;SDS011;4135;49.184;9.722;2023-03-04T17:22:24;44.83;;;14.25;;
8187;SDS011;4135;49.184;9.722;2023-03-04T17:24:54;60.88;;;14.77;;
8187;SDS011;4135;49.184;9.722;2023-03-04T17:27:23;41.83;;;13.48;;
8187;SDS011;4135;49.184;9.722;2023-03-04T17:29:53;50.33;;;15.68;;
8187;SDS011;4135;49.184;9.722;2023-03-04T17:32:22;40.25;;;13.02;;
8187;SDS011;4135;49.184;9.722;2023-03-04T17:34:54;41.67;;;12.82;;
8187;SDS011;4135;49.184;9.722;2023-03-04T17:37:24;35.05;;;12.93;;
8187;SDS011;4135;49.184;9.722;2023-03-04T17:39:54;36.42;;;12.55;;